createdAt,value
2018-07-19T00:01:24.594Z,23.57
2018-07-19T00:03:53.112Z,23.40
2018-07-19T00:06:21.767Z,24.47
2018-07-19T00:08:50.347Z,23.87
2018-07-19T00:11:18.960Z,25.33
2018-07-19T00:13:47.512Z,23.67
2018-07-19T00:16:16.096Z,25.50
2018-07-19T00:18:44.687Z,25.73
2018-07-19T00:21:13.272Z,25.83
2018-07-19T00:23:41.771Z,24.20
2018-07-19T00:26:10.329Z,25.60
2018-07-19T00:28:38.989Z,25.13
2018-07-19T00:31:07.528Z,24.10
2018-07-19T00:33:36.106Z,23.90
2018-07-19T00:36:04.641Z,24.50
2018-07-19T00:38:33.235Z,23.63
2018-07-19T00:41:01.850Z,22.47
2018-07-19T00:43:30.460Z,23.63
2018-07-19T00:45:59.056Z,22.57
2018-07-19T00:48:27.551Z,22.73
2018-07-19T00:50:56.080Z,22.57
2018-07-19T00:53:24.659Z,23.10
2018-07-19T00:55:53.250Z,24.80
2018-07-19T00:58:21.882Z,24.40
2018-07-19T01:00:50.499Z,24.77
2018-07-19T01:03:19.039Z,27.13
2018-07-19T01:05:47.593Z,25.30
2018-07-19T01:08:16.223Z,26.13
2018-07-19T01:10:44.781Z,27.37
2018-07-19T01:13:13.298Z,27.20
2018-07-19T01:15:41.892Z,33.93
2018-07-19T01:18:10.546Z,27.70
2018-07-19T01:20:39.070Z,27.03
2018-07-19T01:23:07.594Z,27.03
2018-07-19T01:25:36.238Z,30.53
2018-07-19T01:28:04.812Z,28.53
2018-07-19T01:30:33.502Z,29.47
2018-07-19T01:33:02.075Z,28.40
2018-07-19T01:35:30.711Z,29.57
2018-07-19T01:37:59.370Z,29.20
2018-07-19T01:40:27.960Z,30.57
2018-07-19T01:42:56.508Z,29.53
2018-07-19T01:45:25.048Z,30.37
2018-07-19T01:47:53.652Z,28.70
2018-07-19T01:50:22.289Z,31.03
2018-07-19T01:52:50.912Z,31.50
2018-07-19T01:55:19.485Z,31.80
2018-07-19T01:57:48.077Z,32.03
2018-07-19T02:00:16.615Z,34.20
2018-07-19T02:02:45.186Z,32.97
2018-07-19T02:05:13.851Z,31.73
2018-07-19T02:07:42.493Z,32.50
2018-07-19T02:10:11.052Z,31.43
2018-07-19T02:12:39.606Z,34.87
2018-07-19T02:15:08.170Z,33.57
2018-07-19T02:17:36.704Z,36.23
2018-07-19T02:20:05.311Z,33.40
2018-07-19T02:22:33.904Z,34.50
2018-07-19T02:25:02.467Z,34.60
2018-07-19T02:27:31.046Z,33.70
2018-07-19T02:29:59.729Z,32.97
2018-07-19T02:32:28.245Z,35.67
2018-07-19T02:34:56.765Z,37.43
2018-07-19T02:37:25.461Z,37.70
2018-07-19T02:39:54.055Z,34.63
2018-07-19T02:42:22.645Z,34.43
2018-07-19T02:44:51.238Z,34.93
2018-07-19T02:47:19.767Z,33.47
2018-07-19T02:49:48.334Z,33.93
2018-07-19T02:52:16.907Z,32.67
2018-07-19T02:54:45.525Z,33.47
2018-07-19T02:57:14.122Z,33.20
2018-07-19T02:59:42.656Z,31.47
2018-07-19T03:02:11.224Z,31.33
2018-07-19T03:04:39.820Z,29.73
2018-07-19T03:07:08.400Z,29.63
2018-07-19T03:09:36.982Z,29.97
2018-07-19T03:12:05.544Z,30.83
2018-07-19T03:14:34.096Z,30.03
2018-07-19T03:17:02.657Z,29.43
2018-07-19T03:19:31.275Z,29.57
2018-07-19T03:21:59.839Z,29.83
2018-07-19T03:24:28.361Z,29.37
2018-07-19T03:26:56.860Z,29.53
2018-07-19T03:29:25.432Z,29.83
2018-07-19T03:31:54.052Z,30.43
2018-07-19T03:34:22.648Z,28.23
2018-07-19T03:36:51.169Z,28.57
2018-07-19T03:39:19.738Z,26.60
2018-07-19T03:41:48.353Z,26.27
2018-07-19T03:44:16.961Z,26.67
2018-07-19T03:46:46.487Z,27.23
2018-07-19T03:49:15.004Z,26.93
2018-07-19T03:51:43.535Z,27.70
2018-07-19T03:54:12.153Z,27.43
2018-07-19T03:56:40.674Z,26.33
2018-07-19T03:59:09.200Z,26.00
2018-07-19T04:01:37.870Z,27.23
2018-07-19T04:04:06.500Z,27.20
2018-07-19T04:06:35.045Z,26.63
2018-07-19T04:09:03.992Z,26.87
2018-07-19T04:11:32.625Z,27.40
2018-07-19T04:14:01.150Z,26.67
2018-07-19T04:16:29.674Z,25.50
2018-07-19T04:18:58.243Z,26.10
2018-07-19T04:21:26.875Z,25.57
2018-07-19T04:23:55.453Z,26.97
2018-07-19T04:26:24.000Z,25.90
2018-07-19T04:28:52.582Z,25.57
2018-07-19T04:31:21.144Z,25.93
2018-07-19T04:33:49.636Z,27.03
2018-07-19T04:36:18.218Z,24.13
2018-07-19T04:38:46.751Z,25.47
2018-07-19T04:41:15.328Z,26.47
2018-07-19T04:43:43.841Z,23.87
2018-07-19T04:46:12.406Z,24.43
2018-07-19T04:48:40.973Z,23.50
2018-07-19T04:51:09.503Z,23.00
2018-07-19T04:53:38.061Z,22.50
2018-07-19T04:56:06.625Z,25.33
2018-07-19T04:58:35.115Z,22.50
2018-07-19T05:01:03.758Z,22.03
2018-07-19T05:03:32.303Z,22.03
2018-07-19T05:06:00.793Z,21.63
2018-07-19T05:08:29.358Z,22.67
2018-07-19T05:10:57.892Z,21.67
2018-07-19T05:13:26.457Z,21.90
2018-07-19T05:15:54.981Z,23.63
2018-07-19T05:18:23.532Z,22.30
2018-07-19T05:20:52.024Z,29.63
2018-07-19T05:23:20.577Z,20.60
2018-07-19T05:25:49.134Z,21.67
2018-07-19T05:28:17.669Z,21.13
2018-07-19T05:30:46.269Z,22.53
2018-07-19T05:33:14.876Z,19.93
2018-07-19T05:35:43.364Z,20.77
2018-07-19T05:38:11.921Z,19.77
2018-07-19T05:40:40.567Z,20.60
2018-07-19T05:43:09.175Z,20.57
2018-07-19T05:45:37.735Z,19.60
2018-07-19T05:48:12.781Z,21.23
2018-07-19T05:50:41.288Z,20.20
2018-07-19T05:53:09.843Z,17.83
2018-07-19T05:55:38.319Z,22.80
2018-07-19T05:58:06.851Z,19.00
2018-07-19T06:00:35.354Z,18.13
2018-07-19T06:03:03.862Z,16.77
2018-07-19T06:05:32.461Z,17.87
2018-07-19T06:08:01.023Z,18.77
2018-07-19T06:10:29.757Z,16.67
2018-07-19T06:12:58.398Z,17.37
2018-07-19T06:15:26.989Z,18.27
2018-07-19T06:17:55.576Z,16.90
2018-07-19T06:20:24.069Z,20.33
2018-07-19T06:22:52.552Z,16.57
2018-07-19T06:25:21.132Z,17.47
2018-07-19T06:27:49.652Z,16.63
2018-07-19T06:30:18.172Z,15.93
2018-07-19T06:32:46.765Z,14.37
2018-07-19T06:35:15.301Z,15.43
2018-07-19T06:37:43.875Z,19.33
2018-07-19T06:40:12.443Z,17.53
2018-07-19T06:42:41.028Z,15.10
2018-07-19T06:45:09.604Z,15.60
2018-07-19T06:47:38.209Z,18.67
2018-07-19T06:50:06.739Z,16.63
2018-07-19T06:52:35.358Z,17.63
2018-07-19T06:57:38.873Z,17.27
2018-07-19T07:00:08.272Z,14.93
2018-07-19T07:02:36.832Z,15.80
2018-07-19T07:05:05.525Z,15.93
2018-07-19T07:07:34.006Z,15.30
2018-07-19T07:10:02.589Z,14.97
2018-07-19T07:12:31.217Z,15.63
2018-07-19T07:14:59.770Z,14.87
2018-07-19T07:17:28.207Z,16.47
2018-07-19T07:19:56.683Z,15.60
2018-07-19T07:22:25.207Z,16.07
2018-07-19T07:24:53.694Z,15.87
2018-07-19T07:27:22.361Z,16.77
2018-07-19T07:29:51.044Z,14.60
2018-07-19T07:32:19.534Z,15.30
2018-07-19T07:34:48.147Z,21.07
2018-07-19T07:37:17.116Z,16.27
2018-07-19T07:39:45.936Z,17.83
2018-07-19T07:42:14.527Z,13.43
2018-07-19T07:44:43.522Z,14.60
2018-07-19T07:47:12.209Z,14.97
2018-07-19T07:49:40.784Z,18.40
2018-07-19T07:52:09.219Z,14.17
2018-07-19T07:54:37.772Z,14.97
2018-07-19T07:57:06.440Z,16.40
2018-07-19T07:59:35.229Z,15.30
2018-07-19T08:02:04.356Z,15.33
2018-07-19T08:04:33.046Z,17.00
2018-07-19T08:07:01.736Z,16.10
2018-07-19T08:09:30.427Z,15.50
2018-07-19T08:11:58.913Z,18.63
2018-07-19T08:14:27.504Z,16.50
2018-07-19T08:16:56.293Z,15.50
2018-07-19T08:19:24.964Z,19.03
2018-07-19T08:21:53.747Z,15.70
2018-07-19T08:24:22.366Z,18.70
2018-07-19T08:26:50.955Z,16.43
2018-07-19T08:29:19.548Z,16.53
2018-07-19T08:31:48.307Z,21.73
2018-07-19T08:34:16.895Z,17.63
2018-07-19T08:36:45.693Z,17.00
2018-07-19T08:39:15.223Z,23.00
2018-07-19T08:41:44.941Z,23.83
2018-07-19T08:44:13.603Z,20.43
2018-07-19T08:46:42.829Z,22.57
2018-07-19T08:49:11.605Z,22.27
2018-07-19T08:51:40.087Z,25.30
2018-07-19T08:54:08.776Z,23.30
2018-07-19T08:56:37.602Z,23.80
2018-07-19T08:59:06.282Z,21.30
2018-07-19T09:01:34.844Z,22.33
2018-07-19T09:04:03.667Z,22.97
2018-07-19T09:06:32.354Z,18.47
2018-07-19T09:09:00.842Z,17.93
2018-07-19T09:11:29.632Z,18.00
2018-07-19T09:13:58.157Z,16.77
2018-07-19T09:16:26.705Z,17.93
2018-07-19T09:18:55.271Z,17.50
2018-07-19T09:21:23.857Z,16.10
2018-07-19T09:23:52.470Z,15.83
2018-07-19T09:26:20.956Z,16.97
2018-07-19T09:28:49.544Z,14.97
2018-07-19T09:31:18.030Z,16.40
2018-07-19T09:33:46.619Z,14.97
2018-07-19T09:36:15.208Z,16.60
2018-07-19T09:38:44.002Z,17.60
2018-07-19T09:41:12.587Z,16.97
2018-07-19T09:43:41.357Z,16.17
2018-07-19T09:46:10.071Z,16.97
2018-07-19T09:48:38.632Z,19.33
2018-07-19T09:51:07.145Z,16.13
2018-07-19T09:53:35.836Z,18.87
2018-07-19T09:56:05.058Z,15.77
2018-07-19T09:58:33.726Z,16.23
2018-07-19T10:01:33.298Z,15.70
2018-07-19T10:04:02.069Z,13.63
2018-07-19T10:06:30.805Z,14.33
2018-07-19T10:08:59.572Z,14.30
2018-07-19T10:11:28.186Z,14.97
2018-07-19T10:13:56.685Z,15.33
2018-07-19T10:16:25.331Z,15.17
2018-07-19T10:18:53.951Z,16.60
2018-07-19T10:21:22.514Z,15.43
2018-07-19T10:23:51.053Z,15.57
2018-07-19T10:26:20.201Z,18.67
2018-07-19T10:28:48.992Z,15.27
2018-07-19T10:31:17.607Z,14.43
2018-07-19T10:33:46.196Z,16.97
2018-07-19T10:36:15.294Z,15.47
2018-07-19T10:38:43.764Z,15.20
2018-07-19T10:41:12.676Z,16.37
2018-07-19T10:43:41.236Z,15.87
2018-07-19T10:46:09.961Z,15.57
2018-07-19T10:48:38.543Z,16.57
2018-07-19T10:51:07.412Z,15.47
2018-07-19T10:53:36.132Z,14.43
2018-07-19T10:56:05.005Z,17.93
2018-07-19T10:58:33.844Z,20.40
2018-07-19T11:01:02.507Z,23.20
2018-07-19T11:03:31.300Z,15.20
2018-07-19T11:05:59.888Z,13.77
2018-07-19T11:08:28.651Z,13.83
2018-07-19T11:10:57.370Z,12.97
2018-07-19T11:13:26.265Z,13.67
2018-07-19T11:15:55.027Z,13.77
2018-07-19T11:18:23.646Z,11.73
2018-07-19T11:20:52.337Z,11.57
2018-07-19T11:23:21.028Z,10.43
2018-07-19T11:25:49.688Z,9.30
2018-07-19T11:28:18.238Z,9.37
2018-07-19T11:30:46.972Z,10.03
2018-07-19T11:33:15.482Z,12.77
2018-07-19T11:35:44.046Z,9.33
2018-07-19T11:38:12.659Z,11.43
2018-07-19T11:40:41.146Z,15.67
2018-07-19T11:43:09.913Z,11.50
2018-07-19T11:45:38.524Z,11.00
2018-07-19T11:48:07.497Z,11.70
2018-07-19T11:50:36.192Z,11.07
2018-07-19T11:53:04.904Z,10.63
2018-07-19T11:55:33.908Z,10.23
2018-07-19T11:58:02.562Z,13.13
2018-07-19T12:00:31.180Z,10.13
2018-07-19T12:02:59.944Z,10.10
2018-07-19T12:05:28.532Z,8.93
2018-07-19T12:07:57.016Z,7.67
2018-07-19T12:10:25.589Z,7.63
2018-07-19T12:12:54.192Z,8.63
2018-07-19T12:15:22.787Z,8.07
2018-07-19T12:17:51.399Z,7.77
2018-07-19T12:20:20.060Z,7.90
2018-07-19T12:22:48.543Z,8.10
2018-07-19T12:25:17.162Z,7.77
2018-07-19T12:27:45.615Z,6.47
2018-07-19T12:30:14.441Z,6.73
2018-07-19T12:32:43.237Z,7.37
2018-07-19T12:35:11.996Z,7.57
2018-07-19T12:37:40.599Z,6.03
2018-07-19T12:40:09.171Z,5.97
2018-07-19T12:42:38.040Z,6.00
2018-07-19T12:45:06.583Z,5.60
2018-07-19T12:47:35.244Z,6.13
2018-07-19T12:50:05.908Z,6.30
2018-07-19T12:52:34.804Z,5.30
2018-07-19T12:55:03.599Z,5.70
2018-07-19T12:57:32.390Z,4.30
2018-07-19T13:00:01.083Z,4.93
2018-07-19T13:02:29.576Z,4.80
2018-07-19T13:04:58.054Z,4.20
2018-07-19T13:07:26.508Z,4.70
2018-07-19T13:09:55.023Z,4.50
2018-07-19T13:12:24.100Z,3.90
2018-07-19T13:14:52.680Z,4.73
2018-07-19T13:17:21.576Z,3.23
2018-07-19T13:19:50.095Z,3.40
2018-07-19T13:22:18.680Z,2.83
2018-07-19T13:24:47.680Z,2.77
2018-07-19T13:27:16.236Z,3.27
2018-07-19T13:29:44.828Z,3.43
2018-07-19T13:32:13.444Z,2.73
2018-07-19T13:34:42.000Z,3.50
2018-07-19T13:37:10.415Z,2.90
2018-07-19T13:39:38.868Z,3.40
2018-07-19T13:42:07.490Z,2.60
2018-07-19T13:44:36.044Z,2.63
2018-07-19T13:47:04.666Z,5.20
2018-07-19T13:49:33.353Z,2.60
2018-07-19T13:52:02.146Z,3.17
2018-07-19T13:54:36.164Z,4.33
2018-07-19T13:57:04.612Z,2.43
2018-07-19T13:59:33.199Z,2.13
2018-07-19T14:02:01.721Z,2.90
2018-07-19T14:04:30.276Z,2.90
2018-07-19T14:06:59.005Z,2.10
2018-07-19T14:09:27.556Z,2.00
2018-07-19T14:11:56.173Z,2.30
2018-07-19T14:14:24.661Z,2.60
2018-07-19T14:16:53.069Z,2.97
2018-07-19T14:19:21.630Z,4.20
2018-07-19T14:21:50.405Z,4.37
2018-07-19T14:24:18.908Z,5.50
2018-07-19T14:26:47.580Z,7.30
2018-07-19T14:29:16.080Z,8.80
2018-07-19T14:31:44.748Z,13.80
2018-07-19T14:34:13.465Z,13.17
2018-07-19T14:36:41.952Z,13.37
2018-07-19T14:39:12.585Z,13.40
2018-07-19T14:41:41.248Z,13.30
2018-07-19T14:44:10.143Z,13.87
2018-07-19T14:46:38.936Z,12.07
2018-07-19T14:49:07.551Z,11.50
2018-07-19T14:51:36.009Z,16.60
2018-07-19T14:54:04.603Z,13.63
2018-07-19T14:56:33.028Z,14.23
2018-07-19T14:59:02.592Z,15.23
2018-07-19T15:01:31.107Z,16.20
2018-07-19T15:03:59.900Z,14.80
2018-07-19T15:06:28.459Z,14.40
2018-07-19T15:08:56.974Z,16.00
2018-07-19T15:11:25.740Z,16.37
2018-07-19T15:13:54.228Z,16.37
2018-07-19T15:16:22.740Z,16.43
2018-07-19T15:18:51.326Z,15.77
2018-07-19T15:21:19.811Z,15.77
2018-07-19T15:23:48.478Z,14.27
2018-07-19T15:26:16.987Z,10.80
2018-07-19T15:28:45.689Z,8.53
2018-07-19T15:31:14.470Z,8.70
2018-07-19T15:33:43.162Z,7.20
2018-07-19T15:36:11.647Z,9.10
2018-07-19T15:38:40.301Z,7.40
2018-07-19T15:41:08.896Z,7.77
2018-07-19T15:43:37.484Z,7.90
2018-07-19T15:46:06.073Z,8.67
2018-07-19T15:48:34.652Z,8.60
2018-07-19T15:51:03.386Z,7.87
2018-07-19T15:53:31.969Z,7.60
2018-07-19T15:56:00.762Z,10.50
2018-07-19T15:58:29.323Z,11.97
2018-07-19T16:00:57.838Z,13.70
2018-07-19T16:03:26.526Z,18.30
2018-07-19T16:05:55.188Z,20.33
2018-07-19T16:08:23.875Z,22.00
2018-07-19T16:10:52.294Z,23.80
2018-07-19T16:13:20.776Z,24.17
2018-07-19T16:15:49.364Z,26.73
2018-07-19T16:18:18.158Z,27.37
2018-07-19T16:20:46.720Z,29.37
2018-07-19T16:23:15.232Z,31.03
2018-07-19T16:25:43.821Z,29.77
2018-07-19T16:28:12.485Z,31.67
2018-07-19T16:30:41.005Z,27.80
2018-07-19T16:33:09.482Z,28.33
2018-07-19T16:35:38.151Z,26.03
2018-07-19T16:38:06.836Z,24.57
2018-07-19T16:40:35.425Z,23.67
2018-07-19T16:43:03.942Z,23.83
2018-07-19T16:45:32.703Z,21.20
2018-07-19T16:48:01.217Z,19.20
2018-07-19T16:50:29.700Z,21.47
2018-07-19T16:52:58.463Z,20.20
2018-07-19T16:55:26.981Z,20.00
2018-07-19T16:57:55.465Z,19.37
2018-07-19T17:00:24.060Z,20.00
2018-07-19T17:02:52.511Z,19.27
2018-07-19T17:05:21.512Z,20.50
2018-07-19T17:07:50.096Z,20.13
2018-07-19T17:10:18.685Z,19.17
2018-07-19T17:12:47.302Z,19.13
2018-07-19T17:15:15.861Z,20.10
2018-07-19T17:17:44.450Z,28.53
2018-07-19T17:20:13.040Z,25.90
2018-07-19T17:22:41.723Z,21.20
2018-07-19T17:25:10.344Z,22.40
2018-07-19T17:27:38.756Z,23.03
2018-07-19T17:30:07.314Z,23.10
2018-07-19T17:32:36.081Z,23.67
2018-07-19T17:35:04.671Z,24.43
2018-07-19T17:37:33.180Z,24.17
2018-07-19T17:40:01.740Z,23.63
2018-07-19T17:42:30.255Z,25.37
2018-07-19T17:44:59.019Z,24.60
2018-07-19T17:47:27.533Z,25.67
2018-07-19T17:49:56.020Z,28.60
2018-07-19T17:52:24.579Z,31.97
2018-07-19T17:54:53.198Z,30.33
2018-07-19T17:57:21.653Z,31.80
2018-07-19T17:59:50.372Z,36.17
2018-07-19T18:02:18.931Z,32.43
2018-07-19T18:04:47.445Z,31.17
2018-07-19T18:07:15.972Z,32.07
2018-07-19T18:09:44.519Z,32.27
2018-07-19T18:12:13.080Z,33.17
2018-07-19T18:14:41.593Z,36.67
2018-07-19T18:17:10.156Z,33.27
2018-07-19T18:19:38.844Z,32.03
2018-07-19T18:22:07.537Z,34.33
2018-07-19T18:24:36.020Z,34.87
2018-07-19T18:27:04.741Z,33.93
2018-07-19T18:29:33.531Z,34.43
2018-07-19T18:32:02.019Z,30.30
2018-07-19T18:34:30.709Z,32.17
2018-07-19T18:36:59.296Z,31.53
2018-07-19T18:39:27.781Z,33.20
2018-07-19T18:41:56.447Z,33.23
2018-07-19T18:44:24.932Z,29.70
2018-07-19T18:46:53.443Z,29.83
2018-07-19T18:49:22.108Z,30.60
2018-07-19T18:51:50.723Z,29.67
2018-07-19T18:54:19.312Z,30.13
2018-07-19T18:56:48.110Z,31.47
2018-07-19T18:59:16.831Z,31.47
2018-07-19T19:01:45.381Z,32.20
2018-07-19T19:04:14.044Z,28.27
2018-07-19T19:06:42.667Z,31.53
2018-07-19T19:09:12.168Z,32.23
2018-07-19T19:11:40.770Z,31.87
2018-07-19T19:14:09.603Z,34.50
2018-07-19T19:16:38.315Z,39.43
2018-07-19T19:19:06.828Z,33.27
2018-07-19T19:21:35.651Z,31.77
2018-07-19T19:24:04.517Z,31.83
2018-07-19T19:26:33.003Z,35.13
2018-07-19T19:29:01.590Z,32.83
2018-07-19T19:31:30.357Z,30.47
2018-07-19T19:33:59.074Z,33.43
2018-07-19T19:36:27.687Z,32.43
2018-07-19T19:38:56.252Z,31.13
2018-07-19T19:41:24.956Z,30.80
2018-07-19T19:43:53.605Z,29.30
2018-07-19T19:46:22.810Z,30.40
2018-07-19T19:48:51.319Z,31.97
2018-07-19T19:51:19.907Z,33.80
2018-07-19T19:53:48.701Z,32.83
2018-07-19T19:56:17.493Z,32.47
2018-07-19T19:58:46.002Z,34.80
2018-07-19T20:01:14.481Z,37.17
2018-07-19T20:03:42.950Z,34.13
2018-07-19T20:06:11.538Z,37.13
2018-07-19T20:08:40.184Z,35.10
2018-07-19T20:11:08.892Z,31.57
2018-07-19T20:13:37.610Z,34.07
2018-07-19T20:16:06.580Z,31.50
2018-07-19T20:18:35.092Z,31.70
2018-07-19T20:21:03.681Z,30.20
2018-07-19T20:23:32.349Z,29.73
2018-07-19T20:26:01.031Z,30.83
2018-07-19T20:28:29.724Z,29.73
2018-07-19T20:30:58.338Z,32.73
2018-07-19T20:33:26.930Z,33.00
2018-07-19T20:35:55.589Z,30.17
2018-07-19T20:38:24.208Z,32.17
2018-07-19T20:40:52.764Z,31.37
2018-07-19T20:43:21.421Z,33.13
2018-07-19T20:45:49.972Z,32.83
2018-07-19T20:48:18.735Z,31.93
2018-07-19T20:50:47.558Z,32.23
2018-07-19T20:53:16.041Z,31.80
2018-07-19T20:55:44.601Z,33.33
2018-07-19T20:58:13.117Z,35.37
2018-07-19T21:00:41.805Z,30.47
2018-07-19T21:03:10.271Z,29.57
2018-07-19T21:05:38.732Z,34.73
2018-07-19T21:08:07.196Z,30.57
2018-07-19T21:10:35.736Z,30.97
2018-07-19T21:13:04.235Z,32.37
2018-07-19T21:15:32.676Z,28.13
2018-07-19T21:18:01.187Z,28.33
2018-07-19T21:20:29.673Z,30.00
2018-07-19T21:22:58.225Z,26.07
2018-07-19T21:25:26.731Z,25.57
2018-07-19T21:27:55.257Z,27.17
2018-07-19T21:30:23.716Z,25.13
2018-07-19T21:32:52.168Z,23.87
2018-07-19T21:35:20.812Z,24.83
2018-07-19T21:37:49.373Z,21.43
2018-07-19T21:40:17.877Z,24.13
2018-07-19T21:42:46.382Z,20.63
2018-07-19T21:45:14.922Z,22.00
2018-07-19T21:47:43.480Z,20.90
2018-07-19T21:50:12.087Z,22.10
2018-07-19T21:52:40.532Z,21.93
2018-07-19T21:55:08.968Z,21.67
2018-07-19T21:57:37.484Z,22.37
2018-07-19T22:00:06.153Z,22.03
2018-07-19T22:02:34.757Z,22.07
2018-07-19T22:05:03.318Z,22.77
2018-07-19T22:07:31.832Z,23.80
2018-07-19T22:10:00.640Z,24.03
2018-07-19T22:12:29.278Z,27.70
2018-07-19T22:14:57.857Z,27.03
2018-07-19T22:17:26.396Z,28.97
2018-07-19T22:19:54.936Z,26.53
2018-07-19T22:22:23.409Z,27.27
2018-07-19T22:24:52.040Z,31.27
2018-07-19T22:27:20.598Z,26.47
2018-07-19T22:29:49.141Z,28.27
2018-07-19T22:32:17.624Z,31.13
2018-07-19T22:34:46.127Z,29.70
2018-07-19T22:37:14.683Z,30.67
2018-07-19T22:39:43.188Z,26.57
2018-07-19T22:42:11.693Z,26.73
2018-07-19T22:44:40.162Z,25.97
2018-07-19T22:47:08.824Z,29.77
2018-07-19T22:49:37.319Z,25.03
2018-07-19T22:52:05.896Z,25.20
2018-07-19T22:54:34.422Z,23.93
2018-07-19T22:57:02.937Z,25.00
2018-07-19T22:59:31.526Z,29.57
2018-07-19T23:02:00.054Z,27.57
2018-07-19T23:04:28.630Z,23.27
2018-07-19T23:06:57.645Z,23.87
2018-07-19T23:09:26.210Z,28.10
2018-07-19T23:11:54.803Z,22.07
2018-07-19T23:14:23.306Z,23.03
2018-07-19T23:16:51.937Z,26.30
2018-07-19T23:19:20.473Z,22.73
2018-07-19T23:21:49.159Z,23.70
2018-07-19T23:24:17.711Z,23.57
2018-07-19T23:26:46.311Z,20.60
2018-07-19T23:29:14.882Z,20.20
2018-07-19T23:31:43.510Z,26.37
2018-07-19T23:34:12.056Z,22.63
2018-07-19T23:36:47.133Z,21.77
2018-07-19T23:39:20.908Z,19.80
2018-07-19T23:41:54.438Z,23.60
2018-07-19T23:44:26.944Z,25.47
2018-07-19T23:47:00.004Z,22.50
2018-07-19T23:49:28.541Z,21.83
2018-07-19T23:51:57.088Z,26.23
2018-07-19T23:54:25.567Z,23.03
2018-07-19T23:56:54.049Z,23.10
2018-07-19T23:59:22.756Z,23.77
